createdAt,value
2022-09-23T00:01:24.110Z,66.90
2022-09-23T00:03:50.978Z,66.60
2022-09-23T00:06:20.823Z,66.30
2022-09-23T00:08:51.010Z,66.10
2022-09-23T00:11:20.965Z,65.80
2022-09-23T00:13:49.973Z,65.80
2022-09-23T00:16:24.889Z,65.70
2022-09-23T00:18:52.248Z,65.90
2022-09-23T00:21:21.375Z,66.00
2022-09-23T00:23:48.701Z,66.10
2022-09-23T00:26:19.176Z,66.30
2022-09-23T00:28:47.071Z,66.40
2022-09-23T00:31:17.463Z,66.40
2022-09-23T00:33:44.376Z,66.50
2022-09-23T00:36:16.600Z,66.40
2022-09-23T00:38:45.160Z,66.40
2022-09-23T00:41:16.279Z,66.30
2022-09-23T00:43:47.486Z,66.40
2022-09-23T00:46:39.798Z,66.50
2022-09-23T00:49:10.133Z,66.60
2022-09-23T00:51:43.331Z,66.70
2022-09-23T00:54:10.494Z,66.90
2022-09-23T00:56:39.092Z,67.00
2022-09-23T00:59:07.916Z,67.30
2022-09-23T01:01:34.811Z,67.30
2022-09-23T01:04:01.874Z,67.20
2022-09-23T01:06:30.260Z,67.10
2022-09-23T01:08:57.237Z,67.50
2022-09-23T01:11:36.186Z,67.40
2022-09-23T01:14:32.067Z,67.70
2022-09-23T01:17:09.000Z,67.70
2022-09-23T01:19:35.852Z,67.80
2022-09-23T01:22:13.656Z,67.80
2022-09-23T01:24:48.060Z,67.80
2022-09-23T01:27:23.490Z,67.70
2022-09-23T01:30:08.470Z,67.80
2022-09-23T01:32:48.714Z,67.80
2022-09-23T01:35:29.370Z,67.90
2022-09-23T01:38:22.656Z,67.90
2022-09-23T01:41:03.373Z,68.00
2022-09-23T01:44:06.078Z,67.90
2022-09-23T01:46:48.836Z,67.90
2022-09-23T01:49:36.958Z,67.90
2022-09-23T01:52:15.362Z,67.90
2022-09-23T01:55:11.062Z,67.90
2022-09-23T01:57:42.807Z,68.10
2022-09-23T02:00:16.165Z,67.90
2022-09-23T02:02:51.187Z,67.90
2022-09-23T02:05:26.797Z,68.10
2022-09-23T02:07:59.287Z,68.20
2022-09-23T02:10:30.547Z,68.40
2022-09-23T02:13:05.374Z,68.40
2022-09-23T02:15:38.666Z,68.20
2022-09-23T02:18:09.267Z,68.30
2022-09-23T02:20:41.199Z,68.30
2022-09-23T02:23:19.794Z,68.50
2022-09-23T02:25:49.313Z,68.50
2022-09-23T02:28:32.577Z,68.50
2022-09-23T02:31:09.177Z,68.40
2022-09-23T02:33:49.323Z,68.50
2022-09-23T02:36:30.043Z,68.90
2022-09-23T02:39:01.194Z,69.10
2022-09-23T02:41:36.716Z,69.00
2022-09-23T02:44:07.883Z,69.00
2022-09-23T02:46:36.213Z,69.60
2022-09-23T02:49:04.741Z,69.90
2022-09-23T02:51:34.850Z,70.10
2022-09-23T02:54:10.559Z,70.10
2022-09-23T02:56:37.840Z,70.00
2022-09-23T02:59:06.043Z,70.00
2022-09-23T03:01:46.599Z,70.00
2022-09-23T03:04:20.345Z,70.00
2022-09-23T03:06:59.446Z,69.90
2022-09-23T03:09:38.455Z,70.00
2022-09-23T03:12:11.397Z,70.30
2022-09-23T03:14:45.163Z,70.20
2022-09-23T03:17:21.197Z,70.10
2022-09-23T03:20:01.358Z,70.40
2022-09-23T03:22:48.808Z,70.60
2022-09-23T03:25:19.779Z,70.60
2022-09-23T03:27:46.690Z,70.50
2022-09-23T03:30:14.006Z,71.00
2022-09-23T03:32:45.478Z,70.30
2022-09-23T03:35:13.416Z,70.20
2022-09-23T03:38:09.050Z,69.90
2022-09-23T03:40:42.001Z,69.80
2022-09-23T03:43:13.312Z,69.70
2022-09-23T03:45:42.587Z,69.70
2022-09-23T03:48:09.474Z,69.80
2022-09-23T03:50:39.188Z,69.80
2022-09-23T03:53:06.899Z,69.70
2022-09-23T03:55:34.707Z,69.60
2022-09-23T03:58:03.159Z,69.50
2022-09-23T04:00:30.361Z,69.40
2022-09-23T04:02:57.135Z,69.30
2022-09-23T04:05:23.840Z,69.40
2022-09-23T04:07:51.044Z,69.30
2022-09-23T04:10:17.886Z,69.30
2022-09-23T04:12:44.631Z,69.10
2022-09-23T04:15:13.595Z,69.10
2022-09-23T04:17:42.800Z,69.00
2022-09-23T04:20:10.077Z,68.90
2022-09-23T04:22:37.978Z,68.90
2022-09-23T04:25:05.273Z,68.90
2022-09-23T04:27:37.720Z,68.80
2022-09-23T04:30:08.863Z,68.80
2022-09-23T04:32:35.670Z,69.00
2022-09-23T04:35:02.470Z,68.80
2022-09-23T04:37:29.788Z,68.80
2022-09-23T04:39:56.539Z,68.70
2022-09-23T04:42:23.282Z,68.50
2022-09-23T04:44:50.038Z,68.50
2022-09-23T04:47:19.221Z,68.40
2022-09-23T04:49:48.219Z,68.30
2022-09-23T04:52:14.911Z,68.40
2022-09-23T04:54:44.327Z,68.50
2022-09-23T04:57:11.236Z,68.60
2022-09-23T04:59:41.287Z,68.90
2022-09-23T05:02:08.210Z,69.00
2022-09-23T05:04:36.092Z,69.20
2022-09-23T05:07:03.559Z,69.70
2022-09-23T05:09:31.109Z,70.00
2022-09-23T05:11:57.868Z,70.10
2022-09-23T05:14:24.661Z,70.10
2022-09-23T05:16:51.389Z,70.10
2022-09-23T05:19:18.464Z,70.10
2022-09-23T05:21:45.157Z,70.20
2022-09-23T05:24:12.569Z,70.40
2022-09-23T05:26:42.023Z,70.20
2022-09-23T05:29:11.331Z,70.00
2022-09-23T05:31:40.317Z,69.80
2022-09-23T05:34:07.264Z,69.50
2022-09-23T05:36:39.192Z,69.30
2022-09-23T05:39:07.812Z,69.10
2022-09-23T05:41:46.006Z,68.70
2022-09-23T05:44:14.092Z,68.50
2022-09-23T05:46:46.750Z,68.50
2022-09-23T05:49:13.599Z,68.40
2022-09-23T05:51:40.324Z,68.20
2022-09-23T05:54:07.229Z,68.20
2022-09-23T05:56:35.558Z,68.10
2022-09-23T05:59:05.948Z,67.90
2022-09-23T06:01:35.613Z,67.70
2022-09-23T06:04:07.276Z,67.30
2022-09-23T06:06:38.332Z,67.00
2022-09-23T06:09:09.961Z,66.60
2022-09-23T06:11:37.156Z,66.60
2022-09-23T06:14:04.792Z,66.50
2022-09-23T06:16:34.705Z,66.30
2022-09-23T06:19:10.764Z,66.30
2022-09-23T06:21:39.360Z,66.30
2022-09-23T06:24:07.750Z,66.20
2022-09-23T06:26:37.471Z,66.10
2022-09-23T06:29:11.949Z,65.80
2022-09-23T06:31:40.671Z,65.90
2022-09-23T06:34:13.207Z,66.00
2022-09-23T06:36:45.749Z,65.80
2022-09-23T06:39:18.145Z,65.80
2022-09-23T06:41:45.581Z,65.70
2022-09-23T06:44:13.871Z,65.70
2022-09-23T06:46:40.743Z,65.60
2022-09-23T06:49:07.505Z,65.40
2022-09-23T06:51:34.379Z,65.20
2022-09-23T06:54:01.338Z,65.10
2022-09-23T06:56:33.622Z,65.10
2022-09-23T06:59:13.066Z,65.10
2022-09-23T07:01:39.986Z,64.90
2022-09-23T07:04:10.841Z,64.70
2022-09-23T07:06:41.132Z,64.60
2022-09-23T07:09:08.689Z,64.50
2022-09-23T07:11:35.495Z,64.00
2022-09-23T07:14:04.774Z,63.80
2022-09-23T07:16:33.744Z,63.60
2022-09-23T07:19:00.829Z,63.40
2022-09-23T07:21:27.793Z,63.60
2022-09-23T07:23:58.186Z,63.10
2022-09-23T07:26:25.484Z,62.60
2022-09-23T07:29:05.366Z,62.20
2022-09-23T07:31:39.187Z,61.70
2022-09-23T07:34:08.626Z,61.30
2022-09-23T07:36:37.426Z,61.00
2022-09-23T07:39:05.097Z,60.90
2022-09-23T07:41:33.401Z,61.10
2022-09-23T07:44:01.475Z,62.00
2022-09-23T07:46:31.015Z,62.80
2022-09-23T07:49:01.968Z,60.90
2022-09-23T07:51:36.009Z,60.80
2022-09-23T07:54:12.166Z,60.40
2022-09-23T07:56:39.927Z,60.00
2022-09-23T07:59:09.213Z,59.40
2022-09-23T08:01:42.538Z,59.30
2022-09-23T08:04:17.743Z,58.80
2022-09-23T08:06:53.560Z,58.30
2022-09-23T08:09:24.187Z,58.10
2022-09-23T08:11:51.075Z,57.90
2022-09-23T08:14:22.230Z,57.40
2022-09-23T08:16:49.527Z,56.70
2022-09-23T08:19:16.671Z,55.60
2022-09-23T08:21:46.582Z,54.30
2022-09-23T08:24:19.290Z,53.20
2022-09-23T08:26:52.885Z,53.00
2022-09-23T08:29:22.107Z,52.40
2022-09-23T08:31:49.846Z,53.40
2022-09-23T08:34:18.531Z,53.10
2022-09-23T08:36:46.417Z,52.30
2022-09-23T08:39:18.083Z,51.50
2022-09-23T08:41:58.400Z,50.90
2022-09-23T08:44:47.628Z,50.30
2022-09-23T08:47:29.489Z,50.50
2022-09-23T08:50:07.383Z,50.50
2022-09-23T08:52:57.038Z,50.90
2022-09-23T08:55:35.521Z,49.20
2022-09-23T08:58:26.359Z,49.30
2022-09-23T09:01:02.229Z,49.10
2022-09-23T09:04:02.671Z,50.00
2022-09-23T09:06:52.915Z,49.40
2022-09-23T09:09:26.750Z,48.50
2022-09-23T09:12:01.298Z,48.50
2022-09-23T09:14:43.032Z,48.60
2022-09-23T09:17:38.335Z,48.20
2022-09-23T09:20:08.048Z,49.30
2022-09-23T09:22:47.995Z,49.00
2022-09-23T09:25:34.013Z,49.80
2022-09-23T09:28:03.051Z,50.10
2022-09-23T09:30:32.611Z,49.00
2022-09-23T09:33:04.766Z,47.90
2022-09-23T09:35:35.005Z,48.80
2022-09-23T09:38:01.982Z,49.00
2022-09-23T09:40:29.201Z,49.50
2022-09-23T09:42:55.990Z,49.60
2022-09-23T09:45:57.525Z,49.80
2022-09-23T09:49:11.406Z,49.50
2022-09-23T09:51:41.235Z,49.20
2022-09-23T09:54:25.940Z,49.00
2022-09-23T09:56:54.414Z,48.90
2022-09-23T09:59:29.020Z,49.20
2022-09-23T10:02:26.339Z,47.60
2022-09-23T10:05:02.770Z,47.80
2022-09-23T10:07:33.682Z,48.60
2022-09-23T10:10:32.265Z,48.00
2022-09-23T10:13:15.542Z,48.60
2022-09-23T10:15:45.176Z,48.60
2022-09-23T10:18:27.118Z,48.30
2022-09-23T10:21:00.135Z,47.30
2022-09-23T10:23:29.542Z,47.90
2022-09-23T10:26:05.138Z,47.80
2022-09-23T10:28:46.749Z,47.30
2022-09-23T10:31:17.678Z,46.30
2022-09-23T10:33:49.820Z,46.30
2022-09-23T10:36:20.893Z,46.60
2022-09-23T10:38:56.067Z,46.40
2022-09-23T10:41:58.642Z,46.20
2022-09-23T10:45:10.181Z,45.30
2022-09-23T10:48:15.632Z,45.10
2022-09-23T10:50:48.976Z,44.60
2022-09-23T10:53:25.876Z,44.30
2022-09-23T10:56:12.669Z,44.20
2022-09-23T10:59:21.785Z,42.70
2022-09-23T11:02:10.390Z,42.50
2022-09-23T11:05:06.035Z,42.70
2022-09-23T11:07:40.254Z,42.70
2022-09-23T11:10:44.896Z,41.00
2022-09-23T11:13:28.039Z,40.30
2022-09-23T11:16:14.042Z,39.90
2022-09-23T11:18:56.991Z,39.90
2022-09-23T11:21:48.807Z,39.60
2022-09-23T11:24:34.293Z,39.30
2022-09-23T11:27:25.986Z,39.60
2022-09-23T11:30:09.672Z,38.10
2022-09-23T11:32:48.799Z,38.20
2022-09-23T11:35:22.966Z,37.20
2022-09-23T11:37:57.620Z,37.20
2022-09-23T11:40:43.914Z,35.10
2022-09-23T11:43:24.114Z,36.00
2022-09-23T11:46:00.170Z,35.80
2022-09-23T11:48:42.930Z,35.60
2022-09-23T11:51:15.839Z,34.20
2022-09-23T11:53:47.103Z,34.80
2022-09-23T11:56:35.400Z,34.80
2022-09-23T11:59:38.627Z,36.10
2022-09-23T12:02:30.569Z,36.00
2022-09-23T12:05:22.011Z,35.60
2022-09-23T12:07:58.134Z,36.00
2022-09-23T12:10:44.871Z,36.20
2022-09-23T12:13:27.274Z,35.70
2022-09-23T12:16:29.126Z,36.00
2022-09-23T12:19:04.671Z,38.00
2022-09-23T12:22:06.390Z,38.10
2022-09-23T12:24:38.912Z,38.00
2022-09-23T12:27:12.505Z,37.80
2022-09-23T12:29:40.281Z,37.50
2022-09-23T12:32:09.825Z,37.80
2022-09-23T12:34:48.862Z,38.30
2022-09-23T12:37:32.718Z,38.10
2022-09-23T12:40:12.471Z,37.90
2022-09-23T12:42:45.949Z,37.80
2022-09-23T12:45:36.750Z,38.00
2022-09-23T12:48:24.873Z,38.00
2022-09-23T12:51:03.746Z,38.20
2022-09-23T12:53:33.565Z,38.20
2022-09-23T12:56:13.774Z,38.50
2022-09-23T12:58:43.323Z,37.70
2022-09-23T13:01:19.150Z,37.70
2022-09-23T13:04:12.056Z,37.70
2022-09-23T13:07:05.744Z,37.70
2022-09-23T13:09:40.974Z,38.40
2022-09-23T13:12:26.759Z,37.90
2022-09-23T13:15:01.953Z,38.40
2022-09-23T13:17:38.022Z,39.00
2022-09-23T13:20:22.012Z,39.50
2022-09-23T13:22:51.867Z,39.50
2022-09-23T13:25:28.310Z,38.90
2022-09-23T13:27:58.936Z,39.60
2022-09-23T13:30:27.018Z,39.80
2022-09-23T13:33:10.860Z,39.70
2022-09-23T13:35:40.656Z,39.80
2022-09-23T13:38:25.930Z,39.80
2022-09-23T13:41:07.726Z,39.80
2022-09-23T13:43:50.522Z,39.60
2022-09-23T13:46:20.228Z,40.00
2022-09-23T13:48:50.509Z,40.00
2022-09-23T13:51:45.636Z,39.10
2022-09-23T13:54:30.272Z,39.10
2022-09-23T13:56:57.432Z,39.40
2022-09-23T13:59:36.915Z,39.80
2022-09-23T14:02:05.188Z,39.90
2022-09-23T14:04:32.117Z,38.70
2022-09-23T14:06:59.318Z,39.00
2022-09-23T14:09:28.127Z,38.90
2022-09-23T14:12:00.107Z,38.90
2022-09-23T14:14:29.936Z,39.10
2022-09-23T14:16:58.025Z,39.00
2022-09-23T14:19:25.782Z,39.50
2022-09-23T14:21:54.900Z,38.90
2022-09-23T14:24:36.235Z,38.40
2022-09-23T14:28:29.678Z,38.20
2022-09-23T14:31:00.638Z,38.50
2022-09-23T14:33:32.034Z,38.80
2022-09-23T14:36:08.901Z,38.00
2022-09-23T14:38:53.881Z,38.20
2022-09-23T14:41:26.111Z,38.10
2022-09-23T14:44:01.163Z,38.00
2022-09-23T14:46:32.737Z,37.90
2022-09-23T14:49:01.996Z,37.80
2022-09-23T14:51:38.536Z,38.20
2022-09-23T14:54:35.332Z,38.40
2022-09-23T14:57:18.276Z,39.10
2022-09-23T15:00:00.238Z,39.90
2022-09-23T15:02:34.501Z,39.40
2022-09-23T15:05:42.289Z,39.40
2022-09-23T15:08:18.748Z,40.20
2022-09-23T15:10:46.099Z,40.00
2022-09-23T15:13:22.446Z,40.00
2022-09-23T15:15:52.590Z,39.70
2022-09-23T15:18:26.918Z,39.90
2022-09-23T15:21:02.399Z,40.40
2022-09-23T15:23:36.877Z,39.80
2022-09-23T15:26:21.787Z,39.70
2022-09-23T15:28:49.983Z,40.00
2022-09-23T15:31:19.350Z,40.30
2022-09-23T15:33:49.959Z,40.10
2022-09-23T15:36:20.310Z,40.10
2022-09-23T15:38:47.561Z,40.30
2022-09-23T15:41:15.704Z,40.40
2022-09-23T15:43:45.109Z,40.60
2022-09-23T15:46:20.279Z,40.80
2022-09-23T15:48:59.052Z,41.40
2022-09-23T15:51:27.411Z,42.00
2022-09-23T15:53:55.347Z,42.60
2022-09-23T15:56:27.042Z,43.00
2022-09-23T15:58:54.004Z,43.30
2022-09-23T16:01:28.055Z,43.70
2022-09-23T16:03:59.634Z,43.70
2022-09-23T16:06:27.688Z,43.90
2022-09-23T16:08:54.657Z,44.10
2022-09-23T16:11:27.312Z,44.10
2022-09-23T16:13:54.060Z,44.70
2022-09-23T16:16:21.137Z,44.70
2022-09-23T16:18:53.279Z,44.70
2022-09-23T16:21:28.550Z,44.70
2022-09-23T16:23:57.217Z,45.00
2022-09-23T16:26:35.505Z,45.10
2022-09-23T16:29:02.318Z,45.30
2022-09-23T16:31:32.220Z,45.70
2022-09-23T16:34:02.142Z,45.90
2022-09-23T16:36:32.032Z,46.10
2022-09-23T16:39:02.693Z,46.30
2022-09-23T16:41:31.564Z,46.50
2022-09-23T16:44:07.325Z,46.90
2022-09-23T16:46:36.969Z,47.30
2022-09-23T16:49:04.264Z,47.60
2022-09-23T16:51:38.150Z,47.80
2022-09-23T16:54:10.001Z,48.20
2022-09-23T16:56:39.103Z,48.60
2022-09-23T16:59:06.395Z,49.00
2022-09-23T17:01:52.211Z,49.40
2022-09-23T17:04:19.494Z,49.90
2022-09-23T17:06:52.836Z,50.20
2022-09-23T17:09:23.221Z,50.60
2022-09-23T17:12:11.834Z,51.10
2022-09-23T17:14:38.538Z,51.40
2022-09-23T17:17:06.366Z,51.80
2022-09-23T17:19:34.407Z,52.20
2022-09-23T17:22:01.140Z,52.50
2022-09-23T17:24:27.844Z,52.60
2022-09-23T17:26:54.562Z,52.70
2022-09-23T17:29:21.277Z,53.00
2022-09-23T17:31:48.112Z,53.30
2022-09-23T17:34:14.924Z,53.60
2022-09-23T17:36:41.740Z,53.70
2022-09-23T17:39:08.493Z,53.80
2022-09-23T17:41:38.979Z,54.20
2022-09-23T17:44:05.817Z,54.40
2022-09-23T17:46:32.700Z,54.70
2022-09-23T17:49:00.085Z,54.90
2022-09-23T17:51:27.101Z,55.00
2022-09-23T17:53:53.889Z,55.50
2022-09-23T17:56:25.881Z,55.60
2022-09-23T17:58:54.802Z,55.80
2022-09-23T18:01:23.757Z,56.20
2022-09-23T18:03:55.534Z,56.50
2022-09-23T18:06:24.348Z,56.50
2022-09-23T18:08:51.807Z,56.50
2022-09-23T18:11:22.125Z,56.50
2022-09-23T18:14:26.084Z,56.70
2022-09-23T18:16:54.074Z,57.10
2022-09-23T18:19:23.081Z,57.20
2022-09-23T18:21:52.542Z,57.60
2022-09-23T18:24:35.475Z,57.70
2022-09-23T18:27:02.410Z,57.90
2022-09-23T18:29:29.159Z,58.00
2022-09-23T18:31:56.279Z,58.40
2022-09-23T18:34:23.494Z,58.80
2022-09-23T18:36:50.388Z,59.00
2022-09-23T18:39:17.346Z,59.60
2022-09-23T18:41:44.087Z,59.90
2022-09-23T18:44:10.910Z,60.20
2022-09-23T18:46:40.369Z,60.50
2022-09-23T18:49:26.021Z,60.50
2022-09-23T18:51:57.692Z,60.50
2022-09-23T18:54:27.522Z,60.30
2022-09-23T18:56:55.099Z,60.70
2022-09-23T18:59:25.006Z,61.10
2022-09-23T19:01:55.200Z,60.90
2022-09-23T19:04:24.426Z,60.90
2022-09-23T19:06:51.199Z,60.80
2022-09-23T19:09:18.477Z,61.10
2022-09-23T19:11:46.030Z,61.30
2022-09-23T19:14:13.971Z,61.20
2022-09-23T19:16:41.379Z,61.70
2022-09-23T19:19:09.194Z,62.00
2022-09-23T19:21:36.283Z,62.10
2022-09-23T19:24:08.920Z,61.90
2022-09-23T19:26:41.013Z,61.40
2022-09-23T19:29:12.895Z,61.30
2022-09-23T19:31:40.769Z,61.30
2022-09-23T19:34:16.581Z,61.00
2022-09-23T19:36:45.525Z,61.10
2022-09-23T19:39:19.421Z,61.60
2022-09-23T19:41:48.895Z,61.50
2022-09-23T19:44:16.465Z,61.80
2022-09-23T19:46:50.680Z,62.10
2022-09-23T19:49:25.658Z,62.40
2022-09-23T19:51:55.828Z,62.60
2022-09-23T19:54:23.403Z,62.80
2022-09-23T19:56:50.268Z,62.90
2022-09-23T19:59:19.691Z,63.00
2022-09-23T20:01:48.138Z,63.30
2022-09-23T20:04:16.161Z,63.60
2022-09-23T20:06:42.972Z,64.10
2022-09-23T20:09:11.764Z,64.30
2022-09-23T20:11:38.751Z,64.20
2022-09-23T20:14:06.254Z,64.50
2022-09-23T20:16:36.837Z,64.50
2022-09-23T20:19:05.441Z,64.40
2022-09-23T20:21:33.749Z,64.60
2022-09-23T20:24:01.156Z,64.90
2022-09-23T20:27:09.085Z,64.90
2022-09-23T20:29:36.362Z,65.00
2022-09-23T20:32:04.081Z,65.20
2022-09-23T20:34:31.017Z,65.10
2022-09-23T20:36:57.814Z,65.20
2022-09-23T20:39:25.247Z,65.40
2022-09-23T20:41:52.946Z,65.60
2022-09-23T20:44:19.754Z,66.20
2022-09-23T20:46:48.779Z,66.70
2022-09-23T20:49:19.718Z,66.90
2022-09-23T20:51:49.123Z,67.00
2022-09-23T20:54:20.848Z,68.00
2022-09-23T20:56:48.175Z,68.30
2022-09-23T20:59:17.475Z,68.40
2022-09-23T21:01:44.214Z,68.60
2022-09-23T21:04:11.022Z,68.80
2022-09-23T21:06:39.217Z,69.10
2022-09-23T21:09:07.072Z,69.30
2022-09-23T21:11:33.963Z,69.50
2022-09-23T21:14:02.260Z,69.70
2022-09-23T21:16:31.426Z,69.90
2022-09-23T21:18:58.977Z,70.50
2022-09-23T21:21:28.004Z,70.80
2022-09-23T21:24:07.275Z,70.90
2022-09-23T21:26:47.257Z,71.00
2022-09-23T21:29:13.999Z,71.00
2022-09-23T21:31:40.780Z,71.20
2022-09-23T21:34:11.130Z,71.30
2022-09-23T21:36:39.436Z,71.50
2022-09-23T21:39:09.016Z,71.50
2022-09-23T21:41:36.442Z,71.70
2022-09-23T21:44:08.177Z,71.90
2022-09-23T21:46:35.788Z,72.10
2022-09-23T21:49:05.449Z,72.00
2022-09-23T21:51:40.149Z,72.00
2022-09-23T21:54:15.646Z,71.90
2022-09-23T21:56:43.268Z,71.80
2022-09-23T21:59:10.527Z,71.70
2022-09-23T22:01:44.276Z,71.50
2022-09-23T22:04:16.993Z,71.40
2022-09-23T22:06:44.667Z,71.00
2022-09-23T22:09:14.235Z,70.90
2022-09-23T22:12:00.648Z,70.90
2022-09-23T22:14:27.732Z,71.10
2022-09-23T22:17:01.411Z,71.10
2022-09-23T22:19:34.783Z,70.80
2022-09-23T22:22:13.186Z,70.90
2022-09-23T22:24:44.010Z,71.50
2022-09-23T22:27:12.344Z,71.40
2022-09-23T22:30:01.075Z,71.40
2022-09-23T22:32:43.383Z,71.40
2022-09-23T22:35:19.311Z,71.50
2022-09-23T22:37:47.843Z,71.80
2022-09-23T22:40:15.633Z,71.90
2022-09-23T22:42:43.529Z,71.80
2022-09-23T22:45:11.547Z,71.80
2022-09-23T22:47:44.011Z,71.90
2022-09-23T22:50:11.438Z,72.00
2022-09-23T22:52:38.578Z,72.30
2022-09-23T22:55:08.008Z,72.40
2022-09-23T22:57:35.221Z,72.70
2022-09-23T23:00:15.697Z,73.00
2022-09-23T23:02:42.638Z,72.90
2022-09-23T23:05:14.457Z,72.70
2022-09-23T23:07:41.712Z,72.50
2022-09-23T23:10:10.204Z,72.50
2022-09-23T23:12:37.202Z,72.60
2022-09-23T23:15:12.272Z,72.60
2022-09-23T23:17:41.121Z,72.90
2022-09-23T23:20:09.164Z,72.40
2022-09-23T23:22:35.974Z,72.30
2022-09-23T23:25:02.733Z,72.10
2022-09-23T23:27:29.895Z,71.90
2022-09-23T23:29:57.224Z,71.90
2022-09-23T23:32:23.990Z,71.90
2022-09-23T23:34:50.714Z,72.10
2022-09-23T23:37:20.786Z,72.40
2022-09-23T23:39:47.914Z,72.40
2022-09-23T23:42:19.249Z,72.30
2022-09-23T23:44:46.201Z,72.50
2022-09-23T23:47:12.943Z,72.50
2022-09-23T23:49:39.731Z,72.60
2022-09-23T23:52:06.447Z,72.70
2022-09-23T23:54:33.226Z,72.70
2022-09-23T23:57:00.230Z,72.70
2022-09-23T23:59:28.950Z,72.60
